createdAt,value
2022-10-18T00:00:32.554Z,99315.47
2022-10-18T00:02:58.872Z,99312.09
2022-10-18T00:05:25.214Z,99314.50
2022-10-18T00:07:51.532Z,99311.78
2022-10-18T00:10:17.922Z,99316.66
2022-10-18T00:12:44.240Z,99309.69
2022-10-18T00:15:10.771Z,99304.41
2022-10-18T00:17:37.472Z,99309.19
2022-10-18T00:20:04.116Z,99312.97
2022-10-18T00:22:30.729Z,99306.66
2022-10-18T00:24:57.358Z,99310.06
2022-10-18T00:27:23.671Z,99315.19
2022-10-18T00:29:52.397Z,99316.66
2022-10-18T00:32:18.730Z,99313.22
2022-10-18T00:34:45.095Z,99310.78
2022-10-18T00:37:11.415Z,99319.53
2022-10-18T00:39:37.749Z,99324.69
2022-10-18T00:42:04.116Z,99326.84
2022-10-18T00:44:30.404Z,99331.72
2022-10-18T00:46:58.059Z,99333.25
2022-10-18T00:49:27.369Z,99334.53
2022-10-18T00:51:56.206Z,99337.88
2022-10-18T00:54:22.535Z,99328.94
2022-10-18T00:56:48.871Z,99322.25
2022-10-18T00:59:15.493Z,99320.53
2022-10-18T01:01:41.856Z,99317.84
2022-10-18T01:04:08.220Z,99313.78
2022-10-18T01:06:35.305Z,99309.25
2022-10-18T01:09:07.827Z,99304.03
2022-10-18T01:11:40.323Z,99306.81
2022-10-18T01:14:09.629Z,99305.19
2022-10-18T01:16:44.924Z,99292.47
2022-10-18T01:19:14.276Z,99295.09
2022-10-18T01:21:45.912Z,99294.09
2022-10-18T01:24:18.286Z,99295.06
2022-10-18T01:26:50.787Z,99290.84
2022-10-18T01:29:20.123Z,99293.91
2022-10-18T01:31:59.502Z,99294.00
2022-10-18T01:34:26.172Z,99287.50
2022-10-18T01:36:53.167Z,99292.63
2022-10-18T01:39:24.775Z,99289.22
2022-10-18T01:41:51.234Z,99291.00
2022-10-18T01:44:26.945Z,99292.91
2022-10-18T01:46:53.367Z,99301.19
2022-10-18T01:49:19.714Z,99295.88
2022-10-18T01:51:46.229Z,99287.31
2022-10-18T01:54:13.026Z,99292.44
2022-10-18T01:56:59.631Z,99280.34
2022-10-18T01:59:37.997Z,99285.59
2022-10-18T02:02:13.415Z,99283.84
2022-10-18T02:04:51.239Z,99274.66
2022-10-18T02:07:22.789Z,99284.13
2022-10-18T02:09:51.991Z,99275.56
2022-10-18T02:12:18.315Z,99281.84
2022-10-18T02:14:44.708Z,99282.31
2022-10-18T02:17:11.063Z,99276.16
2022-10-18T02:19:41.651Z,99269.25
2022-10-18T02:22:08.187Z,99272.31
2022-10-18T02:24:35.643Z,99273.88
2022-10-18T02:27:02.125Z,99287.97
2022-10-18T02:29:28.717Z,99277.72
2022-10-18T02:31:56.067Z,99292.75
2022-10-18T02:34:23.324Z,99290.19
2022-10-18T02:36:53.595Z,99296.00
2022-10-18T02:39:23.607Z,99289.25
2022-10-18T02:41:49.924Z,99292.03
2022-10-18T02:44:16.403Z,99291.00
2022-10-18T02:46:42.732Z,99283.53
2022-10-18T02:49:09.114Z,99283.53
2022-10-18T02:51:35.685Z,99280.66
2022-10-18T02:54:03.180Z,99282.63
2022-10-18T02:56:29.545Z,99286.41
2022-10-18T02:58:55.918Z,99278.66
2022-10-18T03:01:22.354Z,99277.41
2022-10-18T03:03:49.393Z,99281.69
2022-10-18T03:06:15.874Z,99283.34
2022-10-18T03:08:42.201Z,99284.59
2022-10-18T03:11:08.541Z,99274.66
2022-10-18T03:13:35.257Z,99267.19
2022-10-18T03:16:01.798Z,99269.19
2022-10-18T03:18:28.923Z,99261.41
2022-10-18T03:20:55.250Z,99263.06
2022-10-18T03:23:21.593Z,99270.16
2022-10-18T03:25:47.924Z,99271.44
2022-10-18T03:28:14.283Z,99270.13
2022-10-18T03:30:40.611Z,99264.88
2022-10-18T03:33:06.956Z,99261.03
2022-10-18T03:35:33.284Z,99263.47
2022-10-18T03:37:59.629Z,99269.22
2022-10-18T03:40:26.037Z,99269.69
2022-10-18T03:42:52.390Z,99269.59
2022-10-18T03:45:18.756Z,99274.69
2022-10-18T03:47:45.079Z,99267.34
2022-10-18T03:50:11.486Z,99264.00
2022-10-18T03:52:37.866Z,99266.91
2022-10-18T03:55:04.295Z,99266.44
2022-10-18T03:57:30.623Z,99273.84
2022-10-18T03:59:56.937Z,99273.28
2022-10-18T04:02:23.254Z,99281.97
2022-10-18T04:04:49.655Z,99288.38
2022-10-18T04:07:15.976Z,99282.44
2022-10-18T04:09:42.295Z,99282.31
2022-10-18T04:12:08.617Z,99290.25
2022-10-18T04:14:34.943Z,99291.28
2022-10-18T04:17:01.255Z,99287.03
2022-10-18T04:19:27.755Z,99279.59
2022-10-18T04:21:54.061Z,99286.81
2022-10-18T04:24:20.397Z,99283.53
2022-10-18T04:26:46.775Z,99280.03
2022-10-18T04:29:13.140Z,99281.69
2022-10-18T04:31:39.498Z,99275.53
2022-10-18T04:34:05.834Z,99276.97
2022-10-18T04:36:32.189Z,99280.00
2022-10-18T04:38:58.553Z,99283.44
2022-10-18T04:41:24.869Z,99277.50
2022-10-18T04:43:51.201Z,99291.28
2022-10-18T04:46:17.641Z,99285.69
2022-10-18T04:48:43.962Z,99291.00
2022-10-18T04:51:10.269Z,99287.41
2022-10-18T04:53:36.651Z,99295.00
2022-10-18T04:56:03.791Z,99286.69
2022-10-18T04:58:30.107Z,99290.75
2022-10-18T05:00:56.437Z,99291.47
2022-10-18T05:03:22.790Z,99297.75
2022-10-18T05:06:01.358Z,99299.38
2022-10-18T05:08:28.579Z,99297.50
2022-10-18T05:10:54.954Z,99292.19
2022-10-18T05:13:21.319Z,99293.78
2022-10-18T05:15:47.770Z,99301.13
2022-10-18T05:18:14.086Z,99298.13
2022-10-18T05:20:40.403Z,99299.38
2022-10-18T05:23:06.845Z,99298.31
2022-10-18T05:25:33.164Z,99295.00
2022-10-18T05:28:03.453Z,99303.09
2022-10-18T05:30:37.863Z,99302.19
2022-10-18T05:33:04.177Z,99301.00
2022-10-18T05:35:30.492Z,99304.16
2022-10-18T05:37:56.840Z,99302.56
2022-10-18T05:40:23.198Z,99307.34
2022-10-18T05:42:52.586Z,99304.97
2022-10-18T05:45:18.908Z,99303.09
2022-10-18T05:47:45.268Z,99307.06
2022-10-18T05:50:11.614Z,99307.63
2022-10-18T05:52:37.925Z,99304.84
2022-10-18T05:55:04.418Z,99300.56
2022-10-18T05:57:30.973Z,99312.19
2022-10-18T05:59:57.543Z,99308.22
2022-10-18T06:02:23.896Z,99318.69
2022-10-18T06:04:50.246Z,99315.44
2022-10-18T06:07:16.566Z,99319.63
2022-10-18T06:09:42.977Z,99320.91
2022-10-18T06:12:09.412Z,99325.69
2022-10-18T06:14:38.602Z,99326.00
2022-10-18T06:17:04.914Z,99321.94
2022-10-18T06:19:31.245Z,99330.31
2022-10-18T06:21:57.554Z,99334.41
2022-10-18T06:24:23.949Z,99334.88
2022-10-18T06:26:50.316Z,99330.13
2022-10-18T06:29:16.699Z,99329.31
2022-10-18T06:31:43.015Z,99327.31
2022-10-18T06:34:09.370Z,99332.56
2022-10-18T06:36:35.681Z,99331.94
2022-10-18T06:39:02.650Z,99330.66
2022-10-18T06:41:28.964Z,99335.47
2022-10-18T06:43:57.502Z,99339.81
2022-10-18T06:46:24.080Z,99338.13
2022-10-18T06:48:50.539Z,99332.53
2022-10-18T06:51:18.360Z,99331.03
2022-10-18T06:53:59.001Z,99329.22
2022-10-18T06:56:31.076Z,99338.44
2022-10-18T07:01:28.960Z,99332.16
2022-10-18T07:03:55.407Z,99328.88
2022-10-18T07:06:21.771Z,99334.72
2022-10-18T07:08:48.449Z,99330.66
2022-10-18T07:11:18.844Z,99335.44
2022-10-18T07:13:45.252Z,99344.19
2022-10-18T07:16:18.394Z,99347.44
2022-10-18T07:18:46.367Z,99343.94
2022-10-18T07:21:13.192Z,99344.75
2022-10-18T07:23:40.259Z,99348.63
2022-10-18T07:26:25.458Z,99351.50
2022-10-18T07:28:55.256Z,99359.41
2022-10-18T07:31:21.909Z,99347.88
2022-10-18T07:33:48.316Z,99350.31
2022-10-18T07:36:14.651Z,99336.47
2022-10-18T07:38:41.148Z,99351.94
2022-10-18T07:41:07.690Z,99349.13
2022-10-18T07:43:34.451Z,99344.94
2022-10-18T07:46:01.700Z,99344.50
2022-10-18T07:48:28.185Z,99346.00
2022-10-18T07:50:54.568Z,99356.38
2022-10-18T07:53:21.048Z,99358.34
2022-10-18T07:55:47.365Z,99364.28
2022-10-18T07:58:13.687Z,99363.22
2022-10-18T08:00:40.057Z,99368.94
2022-10-18T08:03:06.385Z,99368.22
2022-10-18T08:08:07.236Z,99366.25
2022-10-18T08:10:34.683Z,99374.34
2022-10-18T08:13:01.012Z,99367.81
2022-10-18T08:15:27.447Z,99369.44
2022-10-18T08:17:53.784Z,99369.09
2022-10-18T08:20:30.519Z,99370.34
2022-10-18T08:23:00.083Z,99370.44
2022-10-18T08:25:26.961Z,99370.19
2022-10-18T08:27:53.379Z,99377.66
2022-10-18T08:30:19.734Z,99368.38
2022-10-18T08:32:46.089Z,99367.00
2022-10-18T08:35:12.419Z,99372.44
2022-10-18T08:37:40.097Z,99368.72
2022-10-18T08:40:06.873Z,99363.25
2022-10-18T08:42:39.236Z,99364.34
2022-10-18T08:45:12.518Z,99377.41
2022-10-18T08:47:51.911Z,99372.44
2022-10-18T08:50:21.889Z,99364.50
2022-10-18T08:52:48.164Z,99371.19
2022-10-18T08:55:36.683Z,99369.56
2022-10-18T08:58:05.138Z,99373.88
2022-10-18T09:00:34.456Z,99374.72
2022-10-18T09:03:00.798Z,99384.13
2022-10-18T09:05:40.333Z,99381.31
2022-10-18T09:08:11.439Z,99382.81
2022-10-18T09:10:40.643Z,99378.41
2022-10-18T09:13:16.262Z,99380.28
2022-10-18T09:15:42.563Z,99385.69
2022-10-18T09:18:21.763Z,99383.75
2022-10-18T09:20:56.521Z,99385.91
2022-10-18T09:23:39.342Z,99383.31
2022-10-18T09:26:16.410Z,99380.09
2022-10-18T09:28:45.838Z,99385.03
2022-10-18T09:31:27.496Z,99385.94
2022-10-18T09:33:58.394Z,99376.75
2022-10-18T09:36:25.948Z,99382.09
2022-10-18T09:39:00.459Z,99395.25
2022-10-18T09:41:33.163Z,99384.47
2022-10-18T09:44:18.014Z,99376.72
2022-10-18T09:46:56.393Z,99384.19
2022-10-18T09:49:23.658Z,99372.34
2022-10-18T09:51:50.187Z,99371.97
2022-10-18T09:54:33.072Z,99372.16
2022-10-18T09:57:18.216Z,99377.94
2022-10-18T09:59:48.515Z,99375.41
2022-10-18T10:02:15.673Z,99378.00
2022-10-18T10:04:42.050Z,99390.97
2022-10-18T10:07:09.205Z,99382.72
2022-10-18T10:09:46.229Z,99379.63
2022-10-18T10:12:27.995Z,99381.38
2022-10-18T10:14:54.399Z,99385.69
2022-10-18T10:17:21.660Z,99388.50
2022-10-18T10:19:54.162Z,99377.56
2022-10-18T10:22:25.736Z,99377.56
2022-10-18T10:24:53.004Z,99378.81
2022-10-18T10:27:43.219Z,99400.13
2022-10-18T10:30:21.855Z,99399.78
2022-10-18T10:32:48.843Z,99392.38
2022-10-18T10:35:35.267Z,99396.91
2022-10-18T10:38:10.380Z,99405.75
2022-10-18T10:40:41.507Z,99392.22
2022-10-18T10:43:25.081Z,99397.81
2022-10-18T10:45:57.073Z,99395.22
2022-10-18T10:48:23.385Z,99398.56
2022-10-18T10:50:55.251Z,99391.50
2022-10-18T10:53:26.151Z,99387.91
2022-10-18T10:55:53.593Z,99380.13
2022-10-18T10:58:19.921Z,99372.16
2022-10-18T11:00:46.237Z,99373.88
2022-10-18T11:03:34.534Z,99375.41
2022-10-18T11:06:01.836Z,99374.75
2022-10-18T11:08:29.886Z,99375.94
2022-10-18T11:11:02.321Z,99372.13
2022-10-18T11:13:36.963Z,99372.41
2022-10-18T11:16:07.714Z,99365.47
2022-10-18T11:18:34.668Z,99366.09
2022-10-18T11:21:15.149Z,99368.97
2022-10-18T11:23:42.061Z,99371.44
2022-10-18T11:26:11.484Z,99369.19
2022-10-18T11:28:43.913Z,99375.69
2022-10-18T11:31:10.236Z,99376.88
2022-10-18T11:34:08.061Z,99385.66
2022-10-18T11:36:56.573Z,99390.44
2022-10-18T11:39:53.737Z,99392.06
2022-10-18T11:42:23.393Z,99394.69
2022-10-18T11:44:59.317Z,99404.72
2022-10-18T11:47:27.838Z,99396.34
2022-10-18T11:50:00.292Z,99396.91
2022-10-18T11:52:35.887Z,99391.97
2022-10-18T11:55:05.486Z,99389.25
2022-10-18T11:57:38.863Z,99374.22
2022-10-18T12:00:17.435Z,99369.94
2022-10-18T12:03:02.796Z,99356.19
2022-10-18T12:05:29.272Z,99336.25
2022-10-18T12:07:58.173Z,99323.13
2022-10-18T12:10:37.677Z,99327.19
2022-10-18T12:13:13.283Z,99325.31
2022-10-18T12:15:39.628Z,99316.34
2022-10-18T12:18:16.265Z,99318.19
2022-10-18T12:20:43.264Z,99317.97
2022-10-18T12:23:10.487Z,99323.56
2022-10-18T12:25:37.422Z,99328.75
2022-10-18T12:28:12.965Z,99312.72
2022-10-18T12:30:43.871Z,99311.94
2022-10-18T12:33:27.048Z,99304.25
2022-10-18T12:36:13.200Z,99317.63
2022-10-18T12:38:40.848Z,99311.63
2022-10-18T12:41:07.201Z,99311.63
2022-10-18T12:43:37.571Z,99310.47
2022-10-18T12:46:08.242Z,99305.09
2022-10-18T12:48:42.479Z,99299.69
2022-10-18T12:51:16.045Z,99293.88
2022-10-18T12:53:46.287Z,99306.47
2022-10-18T12:56:27.896Z,99292.72
2022-10-18T12:59:13.008Z,99296.03
2022-10-18T13:01:51.719Z,99299.75
2022-10-18T13:04:33.721Z,99309.41
2022-10-18T13:07:07.921Z,99303.75
2022-10-18T13:09:37.354Z,99317.44
2022-10-18T13:12:09.666Z,99318.56
2022-10-18T13:15:05.912Z,99314.34
2022-10-18T13:17:43.952Z,99309.53
2022-10-18T13:20:26.140Z,99303.84
2022-10-18T13:23:05.201Z,99309.09
2022-10-18T13:25:46.832Z,99301.56
2022-10-18T13:28:32.091Z,99292.59
2022-10-18T13:31:17.181Z,99301.16
2022-10-18T13:33:43.538Z,99289.47
2022-10-18T13:36:22.882Z,99293.06
2022-10-18T13:38:50.389Z,99291.50
2022-10-18T13:41:20.716Z,99295.28
2022-10-18T13:43:56.122Z,99300.56
2022-10-18T13:46:42.713Z,99301.47
2022-10-18T13:49:41.806Z,99305.19
2022-10-18T13:52:16.984Z,99296.63
2022-10-18T13:55:02.244Z,99300.69
2022-10-18T13:57:34.815Z,99300.63
2022-10-18T14:00:07.028Z,99300.81
2022-10-18T14:02:57.731Z,99304.63
2022-10-18T14:05:35.245Z,99313.03
2022-10-18T14:08:08.079Z,99312.78
2022-10-18T14:11:02.307Z,99320.69
2022-10-18T14:13:52.086Z,99327.81
2022-10-18T14:16:21.530Z,99318.34
2022-10-18T14:18:47.873Z,99316.56
2022-10-18T14:21:21.116Z,99312.41
2022-10-18T14:23:48.042Z,99317.44
2022-10-18T14:26:15.355Z,99332.34
2022-10-18T14:28:59.025Z,99327.72
2022-10-18T14:31:26.147Z,99333.84
2022-10-18T14:33:57.260Z,99343.03
2022-10-18T14:36:25.208Z,99338.06
2022-10-18T14:38:52.286Z,99338.31
2022-10-18T14:41:21.732Z,99339.38
2022-10-18T14:43:48.363Z,99345.31
2022-10-18T14:46:19.119Z,99338.31
2022-10-18T14:48:57.237Z,99339.84
2022-10-18T14:51:23.696Z,99341.03
2022-10-18T14:53:50.070Z,99347.09
2022-10-18T14:56:26.912Z,99341.84
2022-10-18T14:58:55.050Z,99344.75
2022-10-18T15:01:21.775Z,99347.88
2022-10-18T15:03:48.218Z,99341.50
2022-10-18T15:06:16.196Z,99350.03
2022-10-18T15:08:42.527Z,99350.97
2022-10-18T15:11:11.848Z,99355.53
2022-10-18T15:13:52.663Z,99351.53
2022-10-18T15:16:21.284Z,99348.97
2022-10-18T15:19:00.626Z,99342.88
2022-10-18T15:21:26.977Z,99352.16
2022-10-18T15:23:54.894Z,99352.72
2022-10-18T15:26:44.766Z,99348.84
2022-10-18T15:29:16.082Z,99354.81
2022-10-18T15:31:43.022Z,99353.16
2022-10-18T15:34:11.013Z,99348.06
2022-10-18T15:36:37.431Z,99355.53
2022-10-18T15:39:16.259Z,99354.47
2022-10-18T15:41:45.726Z,99355.38
2022-10-18T15:44:21.264Z,99354.72
2022-10-18T15:46:47.681Z,99349.44
2022-10-18T15:49:33.007Z,99350.06
2022-10-18T15:52:08.909Z,99359.47
2022-10-18T15:54:35.293Z,99360.84
2022-10-18T15:57:08.492Z,99345.97
2022-10-18T15:59:35.964Z,99353.91
2022-10-18T16:02:02.386Z,99355.19
2022-10-18T16:04:29.478Z,99362.25
2022-10-18T16:06:56.810Z,99355.78
2022-10-18T16:09:25.512Z,99374.53
2022-10-18T16:11:56.625Z,99360.13
2022-10-18T16:14:24.334Z,99361.44
2022-10-18T16:16:51.739Z,99367.19
2022-10-18T16:19:18.794Z,99362.16
2022-10-18T16:21:45.140Z,99363.25
2022-10-18T16:24:11.511Z,99363.81
2022-10-18T16:26:37.881Z,99361.53
2022-10-18T16:29:04.774Z,99356.81
2022-10-18T16:31:31.840Z,99373.25
2022-10-18T16:33:58.247Z,99373.44
2022-10-18T16:36:32.896Z,99373.09
2022-10-18T16:39:00.823Z,99371.41
2022-10-18T16:41:27.210Z,99385.50
2022-10-18T16:43:53.599Z,99374.59
2022-10-18T16:46:23.925Z,99378.00
2022-10-18T16:48:53.278Z,99376.03
2022-10-18T16:51:20.718Z,99379.50
2022-10-18T16:53:47.048Z,99384.09
2022-10-18T16:56:15.460Z,99380.44
2022-10-18T16:58:42.243Z,99384.44
2022-10-18T17:01:10.834Z,99382.78
2022-10-18T17:03:37.511Z,99376.06
2022-10-18T17:06:03.960Z,99383.44
2022-10-18T17:08:30.357Z,99383.94
2022-10-18T17:10:58.664Z,99387.00
2022-10-18T17:13:26.812Z,99393.25
2022-10-18T17:15:57.114Z,99399.06
2022-10-18T17:18:26.357Z,99406.09
2022-10-18T17:20:52.733Z,99415.25
2022-10-18T17:23:19.715Z,99410.53
2022-10-18T17:25:58.945Z,99424.06
2022-10-18T17:28:34.428Z,99414.59
2022-10-18T17:31:01.640Z,99419.66
2022-10-18T17:33:30.698Z,99423.44
2022-10-18T17:35:57.034Z,99435.38
2022-10-18T17:38:23.351Z,99442.69
2022-10-18T17:40:52.514Z,99448.75
2022-10-18T17:43:22.733Z,99456.41
2022-10-18T17:45:49.747Z,99464.75
2022-10-18T17:48:17.173Z,99461.63
2022-10-18T17:50:43.755Z,99466.06
2022-10-18T17:53:10.673Z,99470.13
2022-10-18T17:55:37.115Z,99477.66
2022-10-18T17:58:03.438Z,99474.56
2022-10-18T18:00:31.101Z,99474.06
2022-10-18T18:02:58.884Z,99486.78
2022-10-18T18:05:26.676Z,99483.03
2022-10-18T18:07:54.690Z,99484.47
2022-10-18T18:10:21.776Z,99491.53
2022-10-18T18:12:49.733Z,99494.31
2022-10-18T18:15:16.083Z,99483.84
2022-10-18T18:17:58.226Z,99485.47
2022-10-18T18:20:25.074Z,99482.38
2022-10-18T18:22:51.699Z,99478.94
2022-10-18T18:25:18.040Z,99475.34
2022-10-18T18:27:44.795Z,99484.81
2022-10-18T18:30:12.289Z,99481.38
2022-10-18T18:32:39.996Z,99473.03
2022-10-18T18:35:07.739Z,99463.84
2022-10-18T18:37:35.395Z,99471.06
2022-10-18T18:40:02.562Z,99466.63
2022-10-18T18:42:30.437Z,99466.13
2022-10-18T18:44:57.922Z,99458.28
2022-10-18T18:47:27.274Z,99453.78
2022-10-18T18:49:56.755Z,99464.00
2022-10-18T18:52:23.182Z,99464.50
2022-10-18T18:54:49.607Z,99456.63
2022-10-18T18:57:17.096Z,99456.63
2022-10-18T18:59:43.939Z,99462.50
2022-10-18T19:02:10.444Z,99462.88
2022-10-18T19:04:37.455Z,99461.22
2022-10-18T19:07:03.793Z,99470.50
2022-10-18T19:09:31.717Z,99471.31
2022-10-18T19:11:58.063Z,99474.72
2022-10-18T19:14:27.910Z,99472.09
2022-10-18T19:17:01.469Z,99463.09
2022-10-18T19:19:31.489Z,99463.91
2022-10-18T19:21:59.720Z,99469.19
2022-10-18T19:24:26.548Z,99473.09
2022-10-18T19:26:55.252Z,99466.66
2022-10-18T19:29:32.142Z,99470.75
2022-10-18T19:31:59.491Z,99470.94
2022-10-18T19:34:26.567Z,99464.34
2022-10-18T19:36:53.000Z,99469.06
2022-10-18T19:39:22.490Z,99471.31
2022-10-18T19:41:49.673Z,99481.03
2022-10-18T19:44:16.347Z,99480.22
2022-10-18T19:46:42.799Z,99479.28
2022-10-18T19:49:09.340Z,99488.28
2022-10-18T19:51:38.627Z,99486.34
2022-10-18T19:54:06.226Z,99486.00
2022-10-18T19:56:36.032Z,99487.31
2022-10-18T19:59:02.752Z,99491.75
2022-10-18T20:01:29.117Z,99491.75
2022-10-18T20:03:55.609Z,99489.00
2022-10-18T20:06:26.752Z,99492.41
2022-10-18T20:08:53.437Z,99489.94
2022-10-18T20:11:22.914Z,99497.34
2022-10-18T20:13:49.410Z,99491.47
2022-10-18T20:16:16.375Z,99495.78
2022-10-18T20:18:44.352Z,99500.03
2022-10-18T20:21:12.975Z,99508.00
2022-10-18T20:23:39.576Z,99502.75
2022-10-18T20:26:07.202Z,99504.53
2022-10-18T20:28:36.687Z,99505.94
2022-10-18T20:31:08.619Z,99502.16
2022-10-18T20:33:35.441Z,99501.16
2022-10-18T20:36:12.972Z,99492.69
2022-10-18T20:38:40.172Z,99491.53
2022-10-18T20:41:07.298Z,99495.91
2022-10-18T20:43:34.873Z,99493.88
2022-10-18T20:46:02.375Z,99499.69
2022-10-18T20:48:30.057Z,99497.66
2022-10-18T20:50:59.132Z,99501.38
2022-10-18T20:53:25.450Z,99511.28
2022-10-18T20:55:53.981Z,99504.91
2022-10-18T20:58:20.334Z,99508.81
2022-10-18T21:00:47.114Z,99501.75
2022-10-18T21:03:13.424Z,99502.06
2022-10-18T21:05:42.937Z,99516.03
2022-10-18T21:08:11.617Z,99513.41
2022-10-18T21:10:42.607Z,99508.72
2022-10-18T21:13:09.152Z,99508.38
2022-10-18T21:15:36.184Z,99513.84
2022-10-18T21:18:02.541Z,99506.84
2022-10-18T21:20:30.119Z,99505.78
2022-10-18T21:22:59.305Z,99508.53
2022-10-18T21:25:25.980Z,99502.34
2022-10-18T21:27:52.879Z,99505.53
2022-10-18T21:30:19.276Z,99519.13
2022-10-18T21:32:45.697Z,99503.00
2022-10-18T21:35:12.046Z,99492.22
2022-10-18T21:37:42.791Z,99498.53
2022-10-18T21:40:10.837Z,99502.13
2022-10-18T21:42:38.018Z,99491.69
2022-10-18T21:45:05.788Z,99493.72
2022-10-18T21:47:35.145Z,99491.81
2022-10-18T21:50:03.084Z,99496.31
2022-10-18T21:52:29.655Z,99501.44
2022-10-18T21:54:56.138Z,99496.00
2022-10-18T21:57:22.464Z,99500.31
2022-10-18T21:59:48.795Z,99501.75
2022-10-18T22:02:15.112Z,99504.84
2022-10-18T22:04:41.472Z,99501.69
2022-10-18T22:07:07.791Z,99498.66
2022-10-18T22:09:35.490Z,99510.06
2022-10-18T22:12:05.111Z,99508.69
2022-10-18T22:14:33.638Z,99510.25
2022-10-18T22:17:00.050Z,99507.25
2022-10-18T22:19:26.358Z,99508.38
2022-10-18T22:21:52.834Z,99504.81
2022-10-18T22:24:19.221Z,99502.56
2022-10-18T22:26:53.180Z,99503.47
2022-10-18T22:29:20.140Z,99499.59
2022-10-18T22:31:47.619Z,99492.44
2022-10-18T22:34:15.634Z,99482.94
2022-10-18T22:36:42.011Z,99487.78
2022-10-18T22:39:13.353Z,99485.13
2022-10-18T22:41:39.872Z,99477.56
2022-10-18T22:44:07.998Z,99487.22
2022-10-18T22:46:35.170Z,99475.53
2022-10-18T22:49:02.919Z,99475.16
2022-10-18T22:51:29.329Z,99472.31
2022-10-18T22:53:55.750Z,99478.25
2022-10-18T22:56:23.538Z,99472.25
2022-10-18T22:58:49.855Z,99478.66
2022-10-18T23:01:18.265Z,99476.41
2022-10-18T23:03:44.654Z,99473.88
2022-10-18T23:06:20.687Z,99476.63
2022-10-18T23:08:47.424Z,99476.75
2022-10-18T23:11:13.820Z,99461.78
2022-10-18T23:13:40.692Z,99466.72
2022-10-18T23:16:07.336Z,99468.94
2022-10-18T23:21:13.714Z,99468.25
2022-10-18T23:23:40.779Z,99479.94
2022-10-18T23:26:14.547Z,99470.53
2022-10-18T23:28:42.992Z,99474.41
2022-10-18T23:31:17.952Z,99474.09
2022-10-18T23:33:44.740Z,99473.16
2022-10-18T23:36:11.131Z,99487.13
2022-10-18T23:38:43.754Z,99488.75
2022-10-18T23:41:11.668Z,99489.97
2022-10-18T23:43:47.991Z,99491.84
2022-10-18T23:46:19.557Z,99489.56
2022-10-18T23:48:48.070Z,99496.31
2022-10-18T23:51:14.405Z,99497.97
2022-10-18T23:53:40.823Z,99500.63
2022-10-18T23:56:09.231Z,99492.13
2022-10-18T23:58:36.030Z,99490.19
